sensor_id;sensor_type;location;lat;lon;timestamp;P1;durP1;ratioP1;P2;durP2;ratioP2
45296;SDS011;31040;51.622;10.420;2023-06-04T00:01:41;4.00;;;2.63;;
45296;SDS011;31040;51.622;10.420;2023-06-04T00:04:11;2.35;;;2.15;;
45296;SDS011;31040;51.622;10.420;2023-06-04T00:06:38;3.85;;;2.22;;
45296;SDS011;31040;51.622;10.420;2023-06-04T00:09:06;4.32;;;2.28;;
45296;SDS011;31040;51.622;10.420;2023-06-04T00:11:33;6.50;;;2.45;;
45296;SDS011;31040;51.622;10.420;2023-06-04T00:14:02;4.22;;;2.70;;
45296;SDS011;31040;51.622;10.420;2023-06-04T00:16:29;3.63;;;2.17;;
45296;SDS011;31040;51.622;10.420;2023-06-04T00:18:56;3.50;;;2.78;;
45296;SDS011;31040;51.622;10.420;2023-06-04T00:21:24;4.53;;;3.05;;
45296;SDS011;31040;51.622;10.420;2023-06-04T00:23:51;2.83;;;2.20;;
45296;SDS011;31040;51.622;10.420;2023-06-04T00:26:22;4.53;;;2.55;;
45296;SDS011;31040;51.622;10.420;2023-06-04T00:28:49;2.85;;;2.20;;
45296;SDS011;31040;51.622;10.420;2023-06-04T00:31:17;3.45;;;2.45;;
45296;SDS011;31040;51.622;10.420;2023-06-04T00:33:44;4.18;;;2.85;;
45296;SDS011;31040;51.622;10.420;2023-06-04T00:36:12;3.90;;;2.33;;
45296;SDS011;31040;51.622;10.420;2023-06-04T00:38:39;4.68;;;2.40;;
45296;SDS011;31040;51.622;10.420;2023-06-04T00:41:06;2.22;;;2.00;;
45296;SDS011;31040;51.622;10.420;2023-06-04T00:43:34;3.80;;;2.15;;
45296;SDS011;31040;51.622;10.420;2023-06-04T00:46:02;3.83;;;2.40;;
45296;SDS011;31040;51.622;10.420;2023-06-04T00:48:30;3.20;;;2.25;;
45296;SDS011;31040;51.622;10.420;2023-06-04T00:50:58;2.70;;;2.50;;
45296;SDS011;31040;51.622;10.420;2023-06-04T00:53:25;3.80;;;2.28;;
45296;SDS011;31040;51.622;10.420;2023-06-04T00:55:56;3.20;;;2.22;;
45296;SDS011;31040;51.622;10.420;2023-06-04T00:58:24;3.42;;;2.28;;
45296;SDS011;31040;51.622;10.420;2023-06-04T01:00:52;3.47;;;2.42;;
45296;SDS011;31040;51.622;10.420;2023-06-04T01:03:23;5.45;;;2.42;;
45296;SDS011;31040;51.622;10.420;2023-06-04T01:08:50;5.55;;;2.08;;
45296;SDS011;31040;51.622;10.420;2023-06-04T01:11:33;3.72;;;2.20;;
45296;SDS011;31040;51.622;10.420;2023-06-04T01:14:02;3.08;;;2.60;;
45296;SDS011;31040;51.622;10.420;2023-06-04T01:16:30;4.53;;;2.33;;
45296;SDS011;31040;51.622;10.420;2023-06-04T01:19:01;2.30;;;2.00;;
45296;SDS011;31040;51.622;10.420;2023-06-04T01:21:29;2.10;;;1.90;;
45296;SDS011;31040;51.622;10.420;2023-06-04T01:23:57;4.78;;;2.70;;
45296;SDS011;31040;51.622;10.420;2023-06-04T01:26:29;1.90;;;1.80;;
45296;SDS011;31040;51.622;10.420;2023-06-04T01:28:59;1.98;;;1.77;;
45296;SDS011;31040;51.622;10.420;2023-06-04T01:31:28;14.13;;;3.08;;
45296;SDS011;31040;51.622;10.420;2023-06-04T01:33:59;2.97;;;1.83;;
45296;SDS011;31040;51.622;10.420;2023-06-04T01:36:26;2.83;;;1.83;;
45296;SDS011;31040;51.622;10.420;2023-06-04T01:38:54;2.05;;;1.92;;
45296;SDS011;31040;51.622;10.420;2023-06-04T01:41:22;4.13;;;1.90;;
45296;SDS011;31040;51.622;10.420;2023-06-04T01:43:49;3.60;;;2.10;;
45296;SDS011;31040;51.622;10.420;2023-06-04T01:46:17;4.47;;;2.35;;
45296;SDS011;31040;51.622;10.420;2023-06-04T01:48:44;3.65;;;2.30;;
45296;SDS011;31040;51.622;10.420;2023-06-04T01:51:15;3.33;;;2.17;;
45296;SDS011;31040;51.622;10.420;2023-06-04T01:53:42;2.97;;;2.13;;
45296;SDS011;31040;51.622;10.420;2023-06-04T01:56:10;3.45;;;2.00;;
45296;SDS011;31040;51.622;10.420;2023-06-04T01:58:37;3.42;;;2.22;;
45296;SDS011;31040;51.622;10.420;2023-06-04T02:01:05;2.67;;;2.00;;
45296;SDS011;31040;51.622;10.420;2023-06-04T02:03:33;4.15;;;2.45;;
45296;SDS011;31040;51.622;10.420;2023-06-04T02:06:04;4.38;;;2.15;;
45296;SDS011;31040;51.622;10.420;2023-06-04T02:08:34;4.18;;;2.38;;
45296;SDS011;31040;51.622;10.420;2023-06-04T02:11:06;2.85;;;2.28;;
45296;SDS011;31040;51.622;10.420;2023-06-04T02:13:34;4.40;;;2.53;;
45296;SDS011;31040;51.622;10.420;2023-06-04T02:16:02;4.43;;;2.25;;
45296;SDS011;31040;51.622;10.420;2023-06-04T02:18:30;3.33;;;2.50;;
45296;SDS011;31040;51.622;10.420;2023-06-04T02:20:57;3.40;;;2.35;;
45296;SDS011;31040;51.622;10.420;2023-06-04T02:23:25;2.83;;;2.53;;
45296;SDS011;31040;51.622;10.420;2023-06-04T02:25:52;4.57;;;2.33;;
45296;SDS011;31040;51.622;10.420;2023-06-04T02:28:20;3.25;;;2.45;;
45296;SDS011;31040;51.622;10.420;2023-06-04T02:30:48;2.88;;;2.30;;
45296;SDS011;31040;51.622;10.420;2023-06-04T02:33:15;3.78;;;2.30;;
45296;SDS011;31040;51.622;10.420;2023-06-04T02:35:43;4.07;;;2.35;;
45296;SDS011;31040;51.622;10.420;2023-06-04T02:38:10;4.25;;;2.33;;
45296;SDS011;31040;51.622;10.420;2023-06-04T02:40:38;2.70;;;2.50;;
45296;SDS011;31040;51.622;10.420;2023-06-04T02:43:06;2.85;;;2.47;;
45296;SDS011;31040;51.622;10.420;2023-06-04T02:45:33;3.88;;;2.70;;
45296;SDS011;31040;51.622;10.420;2023-06-04T02:48:01;3.63;;;2.50;;
45296;SDS011;31040;51.622;10.420;2023-06-04T02:50:28;2.78;;;2.20;;
45296;SDS011;31040;51.622;10.420;2023-06-04T02:52:56;2.60;;;2.30;;
45296;SDS011;31040;51.622;10.420;2023-06-04T02:55:23;2.97;;;2.65;;
45296;SDS011;31040;51.622;10.420;2023-06-04T02:57:51;3.80;;;2.53;;
45296;SDS011;31040;51.622;10.420;2023-06-04T03:00:19;3.20;;;2.53;;
45296;SDS011;31040;51.622;10.420;2023-06-04T03:02:47;6.53;;;2.80;;
45296;SDS011;31040;51.622;10.420;2023-06-04T03:05:16;6.43;;;2.78;;
45296;SDS011;31040;51.622;10.420;2023-06-04T03:07:45;2.95;;;2.22;;
45296;SDS011;31040;51.622;10.420;2023-06-04T03:10:14;2.80;;;2.33;;
45296;SDS011;31040;51.622;10.420;2023-06-04T03:12:41;4.97;;;2.05;;
45296;SDS011;31040;51.622;10.420;2023-06-04T03:15:09;3.90;;;2.30;;
45296;SDS011;31040;51.622;10.420;2023-06-04T03:17:37;3.15;;;2.40;;
45296;SDS011;31040;51.622;10.420;2023-06-04T03:20:04;2.58;;;2.20;;
45296;SDS011;31040;51.622;10.420;2023-06-04T03:22:33;4.18;;;2.42;;
45296;SDS011;31040;51.622;10.420;2023-06-04T03:25:02;2.38;;;2.10;;
45296;SDS011;31040;51.622;10.420;2023-06-04T03:27:30;4.40;;;2.45;;
45296;SDS011;31040;51.622;10.420;2023-06-04T03:29:58;3.03;;;2.50;;
45296;SDS011;31040;51.622;10.420;2023-06-04T03:32:26;2.72;;;2.03;;
45296;SDS011;31040;51.622;10.420;2023-06-04T03:34:54;3.20;;;2.53;;
45296;SDS011;31040;51.622;10.420;2023-06-04T03:37:21;3.92;;;2.00;;
45296;SDS011;31040;51.622;10.420;2023-06-04T03:39:48;3.17;;;2.70;;
45296;SDS011;31040;51.622;10.420;2023-06-04T03:42:16;3.33;;;2.10;;
45296;SDS011;31040;51.622;10.420;2023-06-04T03:44:43;2.95;;;2.10;;
45296;SDS011;31040;51.622;10.420;2023-06-04T03:47:11;4.82;;;2.40;;
45296;SDS011;31040;51.622;10.420;2023-06-04T03:49:38;3.45;;;2.30;;
45296;SDS011;31040;51.622;10.420;2023-06-04T03:52:06;3.40;;;2.45;;
45296;SDS011;31040;51.622;10.420;2023-06-04T03:54:33;2.90;;;2.50;;
45296;SDS011;31040;51.622;10.420;2023-06-04T03:57:01;3.33;;;2.22;;
45296;SDS011;31040;51.622;10.420;2023-06-04T03:59:29;3.25;;;1.90;;
45296;SDS011;31040;51.622;10.420;2023-06-04T04:01:57;3.78;;;2.38;;
45296;SDS011;31040;51.622;10.420;2023-06-04T04:04:24;17.98;;;2.97;;
45296;SDS011;31040;51.622;10.420;2023-06-04T04:06:52;2.13;;;1.92;;
45296;SDS011;31040;51.622;10.420;2023-06-04T04:09:19;3.13;;;2.00;;
45296;SDS011;31040;51.622;10.420;2023-06-04T04:11:47;2.78;;;2.13;;
45296;SDS011;31040;51.622;10.420;2023-06-04T04:14:14;5.22;;;1.90;;
45296;SDS011;31040;51.622;10.420;2023-06-04T04:16:42;2.72;;;1.75;;
45296;SDS011;31040;51.622;10.420;2023-06-04T04:19:09;5.18;;;2.22;;
45296;SDS011;31040;51.622;10.420;2023-06-04T04:21:38;2.65;;;2.10;;
45296;SDS011;31040;51.622;10.420;2023-06-04T04:24:05;3.63;;;1.95;;
45296;SDS011;31040;51.622;10.420;2023-06-04T04:26:33;3.70;;;1.98;;
45296;SDS011;31040;51.622;10.420;2023-06-04T04:29:01;4.07;;;1.95;;
45296;SDS011;31040;51.622;10.420;2023-06-04T04:31:28;3.03;;;2.30;;
45296;SDS011;31040;51.622;10.420;2023-06-04T04:33:57;3.92;;;2.10;;
45296;SDS011;31040;51.622;10.420;2023-06-04T04:36:24;5.53;;;2.17;;
45296;SDS011;31040;51.622;10.420;2023-06-04T04:38:52;2.20;;;2.00;;
45296;SDS011;31040;51.622;10.420;2023-06-04T04:41:24;2.03;;;1.92;;
45296;SDS011;31040;51.622;10.420;2023-06-04T04:43:52;2.40;;;1.92;;
45296;SDS011;31040;51.622;10.420;2023-06-04T04:46:20;8.85;;;2.30;;
45296;SDS011;31040;51.622;10.420;2023-06-04T04:48:47;2.50;;;1.80;;
45296;SDS011;31040;51.622;10.420;2023-06-04T04:51:15;2.92;;;2.05;;
45296;SDS011;31040;51.622;10.420;2023-06-04T04:53:42;2.22;;;1.98;;
45296;SDS011;31040;51.622;10.420;2023-06-04T04:56:10;2.05;;;1.63;;
45296;SDS011;31040;51.622;10.420;2023-06-04T04:58:37;3.75;;;2.03;;
45296;SDS011;31040;51.622;10.420;2023-06-04T05:01:04;2.88;;;1.67;;
45296;SDS011;31040;51.622;10.420;2023-06-04T05:03:32;3.03;;;1.88;;
45296;SDS011;31040;51.622;10.420;2023-06-04T05:06:00;35.60;;;4.55;;
45296;SDS011;31040;51.622;10.420;2023-06-04T05:08:27;5.30;;;2.15;;
45296;SDS011;31040;51.622;10.420;2023-06-04T05:10:54;1.63;;;1.52;;
45296;SDS011;31040;51.622;10.420;2023-06-04T05:13:22;2.83;;;1.92;;
45296;SDS011;31040;51.622;10.420;2023-06-04T05:15:49;6.57;;;2.13;;
45296;SDS011;31040;51.622;10.420;2023-06-04T05:18:19;3.45;;;1.70;;
45296;SDS011;31040;51.622;10.420;2023-06-04T05:20:55;5.60;;;1.88;;
45296;SDS011;31040;51.622;10.420;2023-06-04T05:23:24;2.72;;;1.60;;
45296;SDS011;31040;51.622;10.420;2023-06-04T05:25:51;1.77;;;1.60;;
45296;SDS011;31040;51.622;10.420;2023-06-04T05:28:19;1.50;;;1.30;;
45296;SDS011;31040;51.622;10.420;2023-06-04T05:30:46;2.75;;;1.50;;
45296;SDS011;31040;51.622;10.420;2023-06-04T05:33:15;2.67;;;1.70;;
45296;SDS011;31040;51.622;10.420;2023-06-04T05:35:48;3.03;;;1.88;;
45296;SDS011;31040;51.622;10.420;2023-06-04T05:38:15;3.17;;;1.50;;
45296;SDS011;31040;51.622;10.420;2023-06-04T05:40:44;2.03;;;1.52;;
45296;SDS011;31040;51.622;10.420;2023-06-04T05:43:12;5.72;;;2.03;;
45296;SDS011;31040;51.622;10.420;2023-06-04T05:45:39;3.72;;;1.60;;
45296;SDS011;31040;51.622;10.420;2023-06-04T05:48:07;2.53;;;1.70;;
45296;SDS011;31040;51.622;10.420;2023-06-04T05:50:34;3.03;;;1.73;;
45296;SDS011;31040;51.622;10.420;2023-06-04T05:53:02;2.05;;;1.58;;
45296;SDS011;31040;51.622;10.420;2023-06-04T05:55:29;1.88;;;1.60;;
45296;SDS011;31040;51.622;10.420;2023-06-04T05:57:57;3.58;;;1.35;;
45296;SDS011;31040;51.622;10.420;2023-06-04T06:00:24;5.45;;;1.90;;
45296;SDS011;31040;51.622;10.420;2023-06-04T06:02:52;2.10;;;1.40;;
45296;SDS011;31040;51.622;10.420;2023-06-04T06:05:20;7.57;;;2.00;;
45296;SDS011;31040;51.622;10.420;2023-06-04T06:07:48;3.70;;;1.85;;
45296;SDS011;31040;51.622;10.420;2023-06-04T06:10:15;1.92;;;1.30;;
45296;SDS011;31040;51.622;10.420;2023-06-04T06:12:43;3.42;;;1.50;;
45296;SDS011;31040;51.622;10.420;2023-06-04T06:15:10;1.77;;;1.40;;
45296;SDS011;31040;51.622;10.420;2023-06-04T06:17:38;1.63;;;1.40;;
45296;SDS011;31040;51.622;10.420;2023-06-04T06:20:06;2.97;;;1.35;;
45296;SDS011;31040;51.622;10.420;2023-06-04T06:22:34;4.80;;;1.50;;
45296;SDS011;31040;51.622;10.420;2023-06-04T06:25:02;3.22;;;1.65;;
45296;SDS011;31040;51.622;10.420;2023-06-04T06:27:31;1.88;;;1.27;;
45296;SDS011;31040;51.622;10.420;2023-06-04T06:29:59;3.25;;;1.27;;
45296;SDS011;31040;51.622;10.420;2023-06-04T06:32:27;2.20;;;1.00;;
45296;SDS011;31040;51.622;10.420;2023-06-04T06:34:54;1.73;;;1.20;;
45296;SDS011;31040;51.622;10.420;2023-06-04T06:37:22;1.80;;;1.48;;
45296;SDS011;31040;51.622;10.420;2023-06-04T06:39:49;4.75;;;1.38;;
45296;SDS011;31040;51.622;10.420;2023-06-04T06:42:16;1.67;;;1.58;;
45296;SDS011;31040;51.622;10.420;2023-06-04T06:44:44;5.60;;;1.77;;
45296;SDS011;31040;51.622;10.420;2023-06-04T06:47:12;3.63;;;1.35;;
45296;SDS011;31040;51.622;10.420;2023-06-04T06:49:40;1.27;;;1.17;;
45296;SDS011;31040;51.622;10.420;2023-06-04T06:52:07;2.33;;;1.50;;
45296;SDS011;31040;51.622;10.420;2023-06-04T06:54:35;1.92;;;1.33;;
45296;SDS011;31040;51.622;10.420;2023-06-04T06:57:02;1.73;;;1.50;;
45296;SDS011;31040;51.622;10.420;2023-06-04T06:59:35;2.53;;;1.10;;
45296;SDS011;31040;51.622;10.420;2023-06-04T07:02:03;1.98;;;1.20;;
45296;SDS011;31040;51.622;10.420;2023-06-04T07:04:30;3.55;;;1.27;;
45296;SDS011;31040;51.622;10.420;2023-06-04T07:06:58;3.05;;;1.17;;
45296;SDS011;31040;51.622;10.420;2023-06-04T07:09:25;2.72;;;1.05;;
45296;SDS011;31040;51.622;10.420;2023-06-04T07:11:53;1.90;;;0.95;;
45296;SDS011;31040;51.622;10.420;2023-06-04T07:14:20;1.30;;;1.10;;
45296;SDS011;31040;51.622;10.420;2023-06-04T07:16:48;2.13;;;1.10;;
45296;SDS011;31040;51.622;10.420;2023-06-04T07:19:15;0.90;;;0.90;;
45296;SDS011;31040;51.622;10.420;2023-06-04T07:21:43;1.15;;;1.08;;
45296;SDS011;31040;51.622;10.420;2023-06-04T07:24:10;1.55;;;1.13;;
45296;SDS011;31040;51.622;10.420;2023-06-04T07:26:38;0.95;;;0.90;;
45296;SDS011;31040;51.622;10.420;2023-06-04T07:29:06;1.40;;;1.20;;
45296;SDS011;31040;51.622;10.420;2023-06-04T07:31:33;1.63;;;1.52;;
45296;SDS011;31040;51.622;10.420;2023-06-04T07:34:01;4.03;;;1.48;;
45296;SDS011;31040;51.622;10.420;2023-06-04T07:36:28;1.73;;;1.05;;
45296;SDS011;31040;51.622;10.420;2023-06-04T07:38:57;1.77;;;1.15;;
45296;SDS011;31040;51.622;10.420;2023-06-04T07:41:28;1.45;;;1.13;;
45296;SDS011;31040;51.622;10.420;2023-06-04T07:43:55;1.27;;;1.17;;
45296;SDS011;31040;51.622;10.420;2023-06-04T07:46:23;3.55;;;1.13;;
45296;SDS011;31040;51.622;10.420;2023-06-04T07:48:51;1.70;;;1.10;;
45296;SDS011;31040;51.622;10.420;2023-06-04T07:51:18;1.85;;;1.20;;
45296;SDS011;31040;51.622;10.420;2023-06-04T07:53:46;1.80;;;1.48;;
45296;SDS011;31040;51.622;10.420;2023-06-04T07:56:13;1.27;;;1.00;;
45296;SDS011;31040;51.622;10.420;2023-06-04T07:58:41;3.00;;;1.40;;
45296;SDS011;31040;51.622;10.420;2023-06-04T08:01:08;1.30;;;1.23;;
45296;SDS011;31040;51.622;10.420;2023-06-04T08:03:36;2.50;;;1.13;;
45296;SDS011;31040;51.622;10.420;2023-06-04T08:06:04;1.92;;;1.25;;
45296;SDS011;31040;51.622;10.420;2023-06-04T08:08:32;1.73;;;1.40;;
45296;SDS011;31040;51.622;10.420;2023-06-04T08:11:03;3.45;;;1.60;;
45296;SDS011;31040;51.622;10.420;2023-06-04T08:13:30;2.85;;;1.50;;
45296;SDS011;31040;51.622;10.420;2023-06-04T08:15:58;2.10;;;1.10;;
45296;SDS011;31040;51.622;10.420;2023-06-04T08:18:25;1.48;;;1.38;;
45296;SDS011;31040;51.622;10.420;2023-06-04T08:20:53;1.42;;;1.30;;
45296;SDS011;31040;51.622;10.420;2023-06-04T08:23:20;2.35;;;1.48;;
45296;SDS011;31040;51.622;10.420;2023-06-04T08:25:48;1.40;;;1.13;;
45296;SDS011;31040;51.622;10.420;2023-06-04T08:28:15;1.88;;;1.40;;
45296;SDS011;31040;51.622;10.420;2023-06-04T08:30:45;2.00;;;1.20;;
45296;SDS011;31040;51.622;10.420;2023-06-04T08:33:12;1.48;;;1.38;;
45296;SDS011;31040;51.622;10.420;2023-06-04T08:35:40;1.65;;;1.00;;
45296;SDS011;31040;51.622;10.420;2023-06-04T08:38:07;2.25;;;1.20;;
45296;SDS011;31040;51.622;10.420;2023-06-04T08:40:35;1.10;;;1.00;;
45296;SDS011;31040;51.622;10.420;2023-06-04T08:43:02;1.92;;;1.33;;
45296;SDS011;31040;51.622;10.420;2023-06-04T08:45:37;1.13;;;1.02;;
45296;SDS011;31040;51.622;10.420;2023-06-04T08:48:08;3.17;;;1.30;;
45296;SDS011;31040;51.622;10.420;2023-06-04T08:50:39;2.63;;;1.38;;
45296;SDS011;31040;51.622;10.420;2023-06-04T08:53:08;1.60;;;1.50;;
45296;SDS011;31040;51.622;10.420;2023-06-04T08:55:36;1.92;;;1.63;;
45296;SDS011;31040;51.622;10.420;2023-06-04T08:58:05;2.05;;;1.30;;
45296;SDS011;31040;51.622;10.420;2023-06-04T09:00:34;1.15;;;1.02;;
45296;SDS011;31040;51.622;10.420;2023-06-04T09:03:02;3.97;;;1.45;;
45296;SDS011;31040;51.622;10.420;2023-06-04T09:05:32;1.98;;;1.20;;
45296;SDS011;31040;51.622;10.420;2023-06-04T09:08:00;3.50;;;1.50;;
45296;SDS011;31040;51.622;10.420;2023-06-04T09:10:29;1.40;;;1.30;;
45296;SDS011;31040;51.622;10.420;2023-06-04T09:12:57;2.25;;;1.38;;
45296;SDS011;31040;51.622;10.420;2023-06-04T09:15:29;1.92;;;1.17;;
45296;SDS011;31040;51.622;10.420;2023-06-04T09:17:57;2.03;;;1.10;;
45296;SDS011;31040;51.622;10.420;2023-06-04T09:20:24;3.72;;;1.30;;
45296;SDS011;31040;51.622;10.420;2023-06-04T09:22:52;1.40;;;1.15;;
45296;SDS011;31040;51.622;10.420;2023-06-04T09:25:23;1.42;;;1.33;;
45296;SDS011;31040;51.622;10.420;2023-06-04T09:27:54;3.07;;;1.27;;
45296;SDS011;31040;51.622;10.420;2023-06-04T09:30:22;3.45;;;1.25;;
45296;SDS011;31040;51.622;10.420;2023-06-04T09:32:50;1.48;;;1.38;;
45296;SDS011;31040;51.622;10.420;2023-06-04T09:35:20;2.90;;;1.33;;
45296;SDS011;31040;51.622;10.420;2023-06-04T09:37:56;17.80;;;2.60;;
45296;SDS011;31040;51.622;10.420;2023-06-04T09:40:24;1.77;;;1.48;;
45296;SDS011;31040;51.622;10.420;2023-06-04T09:42:52;1.40;;;1.30;;
45296;SDS011;31040;51.622;10.420;2023-06-04T09:45:40;2.03;;;1.60;;
45296;SDS011;31040;51.622;10.420;2023-06-04T09:48:08;4.00;;;1.40;;
45296;SDS011;31040;51.622;10.420;2023-06-04T09:50:45;2.17;;;1.55;;
45296;SDS011;31040;51.622;10.420;2023-06-04T09:53:14;1.92;;;1.52;;
45296;SDS011;31040;51.622;10.420;2023-06-04T09:55:42;2.95;;;1.42;;
45296;SDS011;31040;51.622;10.420;2023-06-04T09:58:10;4.07;;;1.80;;
45296;SDS011;31040;51.622;10.420;2023-06-04T10:00:41;2.72;;;1.38;;
45296;SDS011;31040;51.622;10.420;2023-06-04T10:03:10;1.63;;;1.40;;
45296;SDS011;31040;51.622;10.420;2023-06-04T10:05:42;1.90;;;1.33;;
45296;SDS011;31040;51.622;10.420;2023-06-04T10:08:09;1.38;;;1.27;;
45296;SDS011;31040;51.622;10.420;2023-06-04T10:10:38;1.63;;;1.35;;
45296;SDS011;31040;51.622;10.420;2023-06-04T10:13:52;3.17;;;1.77;;
45296;SDS011;31040;51.622;10.420;2023-06-04T10:16:00;3.42;;;1.40;;
45296;SDS011;31040;51.622;10.420;2023-06-04T10:18:27;3.05;;;1.23;;
45296;SDS011;31040;51.622;10.420;2023-06-04T10:20:55;2.40;;;1.27;;
45296;SDS011;31040;51.622;10.420;2023-06-04T10:23:23;2.63;;;1.33;;
45296;SDS011;31040;51.622;10.420;2023-06-04T10:25:51;2.08;;;1.30;;
45296;SDS011;31040;51.622;10.420;2023-06-04T10:28:20;1.50;;;1.05;;
45296;SDS011;31040;51.622;10.420;2023-06-04T10:30:48;1.38;;;1.15;;
45296;SDS011;31040;51.622;10.420;2023-06-04T10:33:17;2.75;;;1.50;;
45296;SDS011;31040;51.622;10.420;2023-06-04T10:35:46;1.20;;;1.10;;
45296;SDS011;31040;51.622;10.420;2023-06-04T10:38:14;2.10;;;1.33;;
45296;SDS011;31040;51.622;10.420;2023-06-04T10:40:42;1.33;;;1.10;;
45296;SDS011;31040;51.622;10.420;2023-06-04T10:43:11;1.60;;;1.50;;
45296;SDS011;31040;51.622;10.420;2023-06-04T10:45:38;4.55;;;1.42;;
45296;SDS011;31040;51.622;10.420;2023-06-04T10:48:07;1.40;;;1.30;;
45296;SDS011;31040;51.622;10.420;2023-06-04T10:50:35;2.03;;;0.93;;
45296;SDS011;31040;51.622;10.420;2023-06-04T10:53:14;1.77;;;1.20;;
45296;SDS011;31040;51.622;10.420;2023-06-04T10:55:45;2.17;;;1.20;;
45296;SDS011;31040;51.622;10.420;2023-06-04T10:58:13;1.88;;;1.00;;
45296;SDS011;31040;51.622;10.420;2023-06-04T11:00:41;1.80;;;1.30;;
45296;SDS011;31040;51.622;10.420;2023-06-04T11:03:09;2.65;;;1.25;;
45296;SDS011;31040;51.622;10.420;2023-06-04T11:05:41;2.03;;;1.48;;
45296;SDS011;31040;51.622;10.420;2023-06-04T11:08:09;1.25;;;1.15;;
45296;SDS011;31040;51.622;10.420;2023-06-04T11:10:37;1.83;;;1.40;;
45296;SDS011;31040;51.622;10.420;2023-06-04T11:13:05;3.15;;;1.50;;
45296;SDS011;31040;51.622;10.420;2023-06-04T11:15:39;2.35;;;1.42;;
45296;SDS011;31040;51.622;10.420;2023-06-04T11:18:08;1.33;;;1.17;;
45296;SDS011;31040;51.622;10.420;2023-06-04T11:20:36;1.25;;;1.15;;
45296;SDS011;31040;51.622;10.420;2023-06-04T11:23:04;1.85;;;1.27;;
45296;SDS011;31040;51.622;10.420;2023-06-04T11:25:32;3.65;;;1.27;;
45296;SDS011;31040;51.622;10.420;2023-06-04T11:28:00;1.30;;;1.20;;
45296;SDS011;31040;51.622;10.420;2023-06-04T11:30:28;2.50;;;1.10;;
45296;SDS011;31040;51.622;10.420;2023-06-04T11:33:04;2.63;;;1.33;;
45296;SDS011;31040;51.622;10.420;2023-06-04T11:35:39;1.15;;;0.90;;
45296;SDS011;31040;51.622;10.420;2023-06-04T11:38:06;1.73;;;1.10;;
45296;SDS011;31040;51.622;10.420;2023-06-04T11:40:35;2.80;;;1.15;;
45296;SDS011;31040;51.622;10.420;2023-06-04T11:43:03;1.23;;;1.15;;
45296;SDS011;31040;51.622;10.420;2023-06-04T11:45:30;2.22;;;1.23;;
45296;SDS011;31040;51.622;10.420;2023-06-04T11:47:58;3.80;;;1.27;;
45296;SDS011;31040;51.622;10.420;2023-06-04T11:50:27;2.45;;;1.25;;
45296;SDS011;31040;51.622;10.420;2023-06-04T11:52:55;1.10;;;1.00;;
45296;SDS011;31040;51.622;10.420;2023-06-04T11:55:25;3.50;;;1.35;;
45296;SDS011;31040;51.622;10.420;2023-06-04T11:57:53;1.00;;;0.80;;
45296;SDS011;31040;51.622;10.420;2023-06-04T12:00:21;2.08;;;1.30;;
45296;SDS011;31040;51.622;10.420;2023-06-04T12:05:17;1.10;;;1.00;;
45296;SDS011;31040;51.622;10.420;2023-06-04T12:07:49;1.80;;;1.00;;
45296;SDS011;31040;51.622;10.420;2023-06-04T12:10:20;1.52;;;0.80;;
45296;SDS011;31040;51.622;10.420;2023-06-04T12:12:53;1.20;;;1.00;;
45296;SDS011;31040;51.622;10.420;2023-06-04T12:15:22;2.47;;;1.30;;
45296;SDS011;31040;51.622;10.420;2023-06-04T12:17:50;2.13;;;1.00;;
45296;SDS011;31040;51.622;10.420;2023-06-04T12:20:18;2.30;;;1.20;;
45296;SDS011;31040;51.622;10.420;2023-06-04T12:22:49;1.48;;;1.13;;
45296;SDS011;31040;51.622;10.420;2023-06-04T12:25:25;2.42;;;1.20;;
45296;SDS011;31040;51.622;10.420;2023-06-04T12:27:53;2.25;;;1.50;;
45296;SDS011;31040;51.622;10.420;2023-06-04T12:30:20;1.80;;;1.17;;
45296;SDS011;31040;51.622;10.420;2023-06-04T12:32:48;4.15;;;1.20;;
45296;SDS011;31040;51.622;10.420;2023-06-04T12:35:17;13.57;;;2.35;;
45296;SDS011;31040;51.622;10.420;2023-06-04T12:37:44;0.90;;;0.80;;
45296;SDS011;31040;51.622;10.420;2023-06-04T12:40:12;1.60;;;1.13;;
45296;SDS011;31040;51.622;10.420;2023-06-04T12:42:40;2.08;;;1.02;;
45296;SDS011;31040;51.622;10.420;2023-06-04T12:45:07;2.53;;;1.40;;
45296;SDS011;31040;51.622;10.420;2023-06-04T12:47:36;1.10;;;1.00;;
45296;SDS011;31040;51.622;10.420;2023-06-04T12:50:03;1.70;;;1.02;;
45296;SDS011;31040;51.622;10.420;2023-06-04T12:52:31;1.38;;;1.10;;
45296;SDS011;31040;51.622;10.420;2023-06-04T12:54:58;2.38;;;1.00;;
45296;SDS011;31040;51.622;10.420;2023-06-04T12:57:26;1.23;;;0.80;;
45296;SDS011;31040;51.622;10.420;2023-06-04T12:59:53;3.60;;;1.63;;
45296;SDS011;31040;51.622;10.420;2023-06-04T13:02:21;2.03;;;0.98;;
45296;SDS011;31040;51.622;10.420;2023-06-04T13:04:48;1.48;;;1.00;;
45296;SDS011;31040;51.622;10.420;2023-06-04T13:07:20;1.75;;;0.90;;
45296;SDS011;31040;51.622;10.420;2023-06-04T13:09:49;1.63;;;1.10;;
45296;SDS011;31040;51.622;10.420;2023-06-04T13:12:17;2.35;;;1.10;;
45296;SDS011;31040;51.622;10.420;2023-06-04T13:14:44;2.92;;;1.23;;
45296;SDS011;31040;51.622;10.420;2023-06-04T13:17:11;1.65;;;1.20;;
45296;SDS011;31040;51.622;10.420;2023-06-04T13:19:46;2.45;;;1.15;;
45296;SDS011;31040;51.622;10.420;2023-06-04T13:22:13;1.77;;;1.10;;
45296;SDS011;31040;51.622;10.420;2023-06-04T13:24:44;1.02;;;0.88;;
45296;SDS011;31040;51.622;10.420;2023-06-04T13:27:11;2.00;;;0.90;;
45296;SDS011;31040;51.622;10.420;2023-06-04T13:29:39;6.15;;;1.50;;
45296;SDS011;31040;51.622;10.420;2023-06-04T13:32:09;3.08;;;1.10;;
45296;SDS011;31040;51.622;10.420;2023-06-04T13:34:37;6.63;;;1.52;;
45296;SDS011;31040;51.622;10.420;2023-06-04T13:37:05;1.38;;;1.00;;
45296;SDS011;31040;51.622;10.420;2023-06-04T13:39:33;0.90;;;0.90;;
45296;SDS011;31040;51.622;10.420;2023-06-04T13:42:00;1.55;;;1.30;;
45296;SDS011;31040;51.622;10.420;2023-06-04T13:44:28;2.90;;;1.00;;
45296;SDS011;31040;51.622;10.420;2023-06-04T13:46:57;1.58;;;1.00;;
45296;SDS011;31040;51.622;10.420;2023-06-04T13:49:24;1.77;;;1.25;;
45296;SDS011;31040;51.622;10.420;2023-06-04T13:51:52;1.73;;;1.00;;
45296;SDS011;31040;51.622;10.420;2023-06-04T13:54:19;2.08;;;1.23;;
45296;SDS011;31040;51.622;10.420;2023-06-04T13:56:47;2.15;;;0.90;;
45296;SDS011;31040;51.622;10.420;2023-06-04T13:59:15;2.83;;;1.25;;
45296;SDS011;31040;51.622;10.420;2023-06-04T14:01:42;1.58;;;0.98;;
45296;SDS011;31040;51.622;10.420;2023-06-04T14:04:10;1.42;;;1.30;;
45296;SDS011;31040;51.622;10.420;2023-06-04T14:06:38;2.13;;;1.05;;
45296;SDS011;31040;51.622;10.420;2023-06-04T14:09:05;1.83;;;1.15;;
45296;SDS011;31040;51.622;10.420;2023-06-04T14:11:33;18.42;;;2.25;;
45296;SDS011;31040;51.622;10.420;2023-06-04T14:14:01;7.05;;;1.83;;
45296;SDS011;31040;51.622;10.420;2023-06-04T14:16:28;2.05;;;1.10;;
45296;SDS011;31040;51.622;10.420;2023-06-04T14:18:56;0.93;;;0.90;;
45296;SDS011;31040;51.622;10.420;2023-06-04T14:21:23;2.13;;;1.10;;
45296;SDS011;31040;51.622;10.420;2023-06-04T14:23:51;1.65;;;1.10;;
45296;SDS011;31040;51.622;10.420;2023-06-04T14:26:18;1.88;;;1.20;;
45296;SDS011;31040;51.622;10.420;2023-06-04T14:28:46;1.17;;;1.02;;
45296;SDS011;31040;51.622;10.420;2023-06-04T14:31:14;2.55;;;1.15;;
45296;SDS011;31040;51.622;10.420;2023-06-04T14:33:41;1.63;;;1.08;;
45296;SDS011;31040;51.622;10.420;2023-06-04T14:36:09;2.70;;;1.00;;
45296;SDS011;31040;51.622;10.420;2023-06-04T14:38:36;1.48;;;1.20;;
45296;SDS011;31040;51.622;10.420;2023-06-04T14:41:03;5.45;;;1.45;;
45296;SDS011;31040;51.622;10.420;2023-06-04T14:43:31;1.40;;;0.85;;
45296;SDS011;31040;51.622;10.420;2023-06-04T14:45:59;1.55;;;1.25;;